Time;durP1;ratioP1;P1;durP2;ratioP2;P2;SDS_P1;SDS_P2;PMS_P1;PMS_P2;Temp;Humidity;BMP_temperature;BMP_pressure;BME280_temperature;BME280_humidity;BME280_pressure;Samples;Min_cycle;Max_cycle;Signal;HPM_P1;HPM_P2
2022/04/05 00:01:29;;;;;;;1.00;1.00;;;6.00;55.10;5.40;97717.00;;;;5034653;28;20193;-73
2022/04/05 00:03:58;;;;;;;1.03;1.03;;;6.10;54.70;5.40;97719.00;;;;5017057;28;20247;-73
2022/04/05 00:06:27;;;;;;;0.70;0.70;;;6.10;54.40;5.30;97716.00;;;;5034409;28;20270;-73
2022/04/05 00:08:54;;;;;;;0.97;0.97;;;6.00;54.80;5.30;97691.00;;;;5034803;28;20204;-75
2022/04/05 00:11:20;;;;;;;0.93;0.93;;;6.00;55.00;5.20;97716.00;;;;5034374;28;20196;-74
2022/04/05 00:13:47;;;;;;;1.13;1.13;;;6.00;55.00;5.40;97700.00;;;;5017202;28;20335;-75
2022/04/05 00:16:13;;;;;;;1.20;1.20;;;6.10;54.80;5.30;97701.00;;;;5017502;28;20287;-73
2022/04/05 00:18:40;;;;;;;1.10;1.10;;;6.10;54.40;5.20;97699.00;;;;5034344;28;20286;-73
2022/04/05 00:21:10;;;;;;;1.90;1.13;;;6.00;54.80;5.20;97710.00;;;;5034174;28;20203;-73
2022/04/05 00:23:36;;;;;;;0.90;0.90;;;6.00;55.00;5.30;97711.00;;;;5034058;28;20256;-73
2022/04/05 00:26:03;;;;;;;0.90;0.90;;;6.10;54.10;5.30;97704.00;;;;5016657;28;20224;-73
2022/04/05 00:28:30;;;;;;;1.80;1.70;;;6.10;53.90;5.30;97707.00;;;;5033991;28;20590;-73
2022/04/05 00:30:56;;;;;;;2.87;1.27;;;6.10;54.20;5.50;97707.00;;;;5034023;28;20200;-73
2022/04/05 00:33:23;;;;;;;0.93;0.93;;;6.10;54.40;5.30;97702.00;;;;5033796;28;20374;-73
2022/04/05 00:35:51;;;;;;;0.90;0.90;;;6.10;54.30;5.40;97700.00;;;;5033892;28;20208;-74
2022/04/05 00:38:19;;;;;;;0.77;0.77;;;6.20;53.90;5.40;97694.00;;;;5033825;28;20585;-73
2022/04/05 00:40:45;;;;;;;0.93;0.93;;;6.20;53.80;5.40;97694.00;;;;5033730;28;20937;-73
2022/04/05 00:43:12;;;;;;;1.07;1.07;;;6.10;54.10;5.40;97671.00;;;;5033757;28;20220;-73
2022/04/05 00:45:41;;;;;;;1.30;1.30;;;6.20;54.10;5.50;97680.00;;;;5033655;28;20207;-73
2022/04/05 00:48:08;;;;;;;1.07;1.07;;;6.20;53.90;5.40;97685.00;;;;5033818;28;20300;-75
2022/04/05 00:50:38;;;;;;;0.70;0.70;;;6.20;54.80;5.40;97684.00;;;;5033948;28;20216;-73
2022/04/05 00:53:07;;;;;;;1.33;1.00;;;6.20;54.40;5.30;97674.00;;;;5033747;28;20299;-72
2022/04/05 00:55:36;;;;;;;1.17;1.17;;;6.10;54.50;5.30;97681.00;;;;5034732;28;20677;-73
2022/04/05 00:58:04;;;;;;;0.90;0.90;;;6.10;54.70;5.50;97663.00;;;;5034764;28;20213;-73
2022/04/05 01:00:32;;;;;;;0.73;0.73;;;6.10;55.00;5.50;97649.00;;;;5039594;28;20224;-73
2022/04/05 01:03:00;;;;;;;1.10;0.93;;;6.20;54.40;5.60;97657.00;;;;5037556;28;20227;-74
2022/04/05 01:05:28;;;;;;;0.80;0.80;;;6.30;54.40;5.60;97656.00;;;;5040606;28;20192;-73
2022/04/05 01:08:02;;;;;;;0.77;0.77;;;6.30;54.40;5.60;97667.00;;;;5040270;28;20196;-73
2022/04/05 01:10:29;;;;;;;0.97;0.97;;;6.30;54.20;5.60;97656.00;;;;5040126;28;20193;-72
2022/04/05 01:12:57;;;;;;;1.20;1.20;;;6.40;53.90;5.70;97660.00;;;;5039857;28;20228;-73
2022/04/05 01:15:24;;;;;;;1.77;1.67;;;6.40;53.60;5.80;97662.00;;;;5022291;28;20231;-73
2022/04/05 01:17:55;;;;;;;1.40;1.30;;;6.50;53.60;5.70;97669.00;;;;5039897;28;20197;-73
2022/04/05 01:20:23;;;;;;;1.07;1.07;;;6.50;53.40;5.90;97661.00;;;;5039756;28;20232;-73
2022/04/05 01:22:54;;;;;;;0.73;0.73;;;6.60;54.00;5.70;97664.00;;;;5022256;28;20235;-75
2022/04/05 01:25:21;;;;;;;1.30;1.20;;;6.50;53.70;5.70;97651.00;;;;5022635;28;20201;-73
2022/04/05 01:27:49;;;;;;;1.80;1.70;;;6.50;54.40;5.80;97661.00;;;;5039818;28;20599;-74
2022/04/05 01:30:15;;;;;;;1.17;1.17;;;6.50;54.10;5.70;97659.00;;;;5039766;28;20291;-73
2022/04/05 01:32:42;;;;;;;1.07;1.07;;;6.50;54.10;5.60;97659.00;;;;5039549;28;20224;-73
2022/04/05 01:35:10;;;;;;;1.33;1.23;;;6.40;54.90;5.60;97651.00;;;;5039931;28;20283;-73
2022/04/05 01:37:36;;;;;;;0.87;0.87;;;6.30;55.10;5.60;97652.00;;;;5039746;28;20207;-73
2022/04/05 01:40:05;;;;;;;0.90;0.90;;;6.40;55.60;5.60;97645.00;;;;5022229;28;20220;-73
2022/04/05 01:42:33;;;;;;;1.20;1.20;;;6.40;55.20;5.70;97644.00;;;;5039989;28;20252;-72
2022/04/05 01:45:00;;;;;;;0.83;0.83;;;6.50;55.20;5.70;97634.00;;;;5039816;28;20206;-73
2022/04/05 01:47:27;;;;;;;0.90;0.90;;;6.50;56.40;5.70;97638.00;;;;5039965;28;20243;-73
2022/04/05 01:49:54;;;;;;;1.00;1.00;;;6.50;57.40;5.70;97636.00;;;;5039921;28;20651;-72
2022/04/05 01:52:20;;;;;;;1.13;1.13;;;6.40;57.60;5.60;97633.00;;;;5039982;28;20284;-72
2022/04/05 01:54:47;;;;;;;0.83;0.83;;;6.30;58.50;5.40;97635.00;;;;5040227;28;20205;-73
2022/04/05 01:57:15;;;;;;;1.30;1.20;;;6.20;59.60;5.60;97624.00;;;;5041640;28;20199;-73
2022/04/05 01:59:44;;;;;;;0.90;0.90;;;6.30;59.20;5.60;97625.00;;;;5039548;28;20319;-73
2022/04/05 02:02:12;;;;;;;0.90;0.90;;;6.40;60.30;5.60;97636.00;;;;5039425;28;20216;-73
2022/04/05 02:04:40;;;;;;;1.27;1.27;;;6.30;60.20;5.50;97622.00;;;;5039392;28;20691;-73
2022/04/05 02:07:13;;;;;;;1.57;1.53;;;6.30;62.50;5.40;97631.00;;;;5021987;28;20224;-73
2022/04/05 02:09:42;;;;;;;0.97;0.97;;;6.10;61.40;5.30;97621.00;;;;5041601;28;20196;-73
2022/04/05 02:12:10;;;;;;;1.00;1.00;;;6.10;62.60;5.50;97593.00;;;;5039536;28;20232;-74
2022/04/05 02:14:37;;;;;;;0.97;0.97;;;6.20;62.60;5.50;97620.00;;;;5019983;28;20216;-73
2022/04/05 02:17:05;;;;;;;0.80;0.80;;;6.20;61.80;5.40;97615.00;;;;5036137;28;20270;-73
2022/04/05 02:19:31;;;;;;;0.90;0.90;;;6.20;62.40;5.40;97577.00;;;;5036054;28;20225;-73
2022/04/05 02:21:58;;;;;;;1.23;1.23;;;6.20;62.80;5.30;97611.00;;;;5018484;28;20236;-73
2022/04/05 02:24:27;;;;;;;2.97;1.73;;;6.20;64.10;5.30;97613.00;;;;5035981;28;20212;-73
2022/04/05 02:26:56;;;;;;;0.80;0.80;;;6.10;63.70;5.30;97613.00;;;;5018670;28;20224;-73
2022/04/05 02:29:23;;;;;;;0.80;0.80;;;6.10;63.60;5.30;97616.00;;;;5035921;28;20216;-73
2022/04/05 02:31:51;;;;;;;1.43;1.33;;;6.10;62.60;5.30;97595.00;;;;5035785;28;20212;-73
2022/04/05 02:34:18;;;;;;;1.17;1.17;;;6.10;63.80;5.30;97609.00;;;;5035940;28;20205;-73
2022/04/05 02:36:45;;;;;;;0.93;0.93;;;6.10;63.60;5.30;97611.00;;;;5035884;28;20208;-73
2022/04/05 02:39:12;;;;;;;1.13;1.13;;;6.10;63.90;5.30;97610.00;;;;5035593;28;20293;-73
2022/04/05 02:41:41;;;;;;;0.70;0.70;;;6.10;63.60;5.40;97614.00;;;;5035587;28;20284;-74
2022/04/05 02:44:08;;;;;;;1.60;1.50;;;6.10;64.00;5.40;97620.00;;;;5035592;28;20287;-73
2022/04/05 02:46:34;;;;;;;1.90;1.80;;;6.20;64.20;5.50;97609.00;;;;5035469;28;20643;-72
2022/04/05 02:49:01;;;;;;;0.93;0.93;;;6.10;63.40;5.40;97609.00;;;;5035643;28;20283;-74
2022/04/05 02:51:30;;;;;;;0.90;0.90;;;6.10;64.10;5.30;97583.00;;;;5035390;28;20200;-73
2022/04/05 02:53:57;;;;;;;1.33;1.23;;;6.10;64.50;5.40;97604.00;;;;5017987;28;20311;-73
2022/04/05 02:56:23;;;;;;;1.70;1.60;;;6.10;63.90;5.30;97622.00;;;;5035448;28;20675;-73
2022/04/05 02:58:50;;;;;;;0.90;0.90;;;6.10;65.00;5.20;97620.00;;;;5035279;28;20700;-73
2022/04/05 03:01:17;;;;;;;0.87;0.87;;;6.00;65.30;5.10;97614.00;;;;5035413;28;20215;-73
2022/04/05 03:03:43;;;;;;;0.70;0.70;;;6.00;66.30;5.20;97615.00;;;;5018009;28;20315;-73
2022/04/05 03:06:14;;;;;;;0.90;0.90;;;6.00;66.70;5.40;97608.00;;;;5035191;28;20319;-73
2022/04/05 03:08:41;;;;;;;1.23;1.23;;;6.10;67.70;5.20;97612.00;;;;5017820;28;20209;-73
2022/04/05 03:11:10;;;;;;;2.10;1.47;;;6.00;67.90;5.10;97616.00;;;;5035136;28;20209;-73
2022/04/05 03:13:37;;;;;;;0.70;0.70;;;6.00;68.20;5.20;97618.00;;;;5017721;28;20231;-74
2022/04/05 03:16:04;;;;;;;1.37;1.27;;;5.90;69.30;5.00;97621.00;;;;5035115;28;20200;-73
2022/04/05 03:18:31;;;;;;;1.27;1.23;;;5.90;68.90;5.20;97621.00;;;;5034913;28;20201;-72
2022/04/05 03:20:57;;;;;;;0.93;0.93;;;5.90;69.10;5.10;97623.00;;;;5034999;28;20196;-73
2022/04/05 03:23:24;;;;;;;0.80;0.80;;;5.90;69.70;5.00;97618.00;;;;5034893;28;20221;-73
2022/04/05 03:25:52;;;;;;;0.93;0.93;;;5.80;69.60;4.90;97625.00;;;;5034252;28;20549;-73
2022/04/05 03:28:20;;;;;;;0.90;0.90;;;5.80;70.30;5.00;97627.00;;;;5034868;28;20220;-73
2022/04/05 03:30:47;;;;;;;1.00;1.00;;;5.80;70.10;5.10;97640.00;;;;5017501;28;20288;-73
2022/04/05 03:33:14;;;;;;;1.30;1.30;;;5.80;69.70;5.10;97621.00;;;;5034805;28;20286;-73
2022/04/05 03:35:41;;;;;;;1.37;1.27;;;5.90;69.60;5.10;97624.00;;;;5017441;28;20644;-73
2022/04/05 03:38:08;;;;;;;1.23;1.23;;;5.90;70.00;5.10;97620.00;;;;5034778;28;20208;-74
2022/04/05 03:40:35;;;;;;;1.17;1.17;;;5.90;69.30;5.00;97625.00;;;;5034717;28;20256;-73
2022/04/05 03:43:03;;;;;;;1.10;1.10;;;5.90;69.50;5.20;97624.00;;;;5034576;28;20224;-73
2022/04/05 03:45:30;;;;;;;2.63;1.20;;;5.90;70.60;5.10;97618.00;;;;5034807;28;20220;-73
2022/04/05 03:48:00;;;;;;;1.00;1.00;;;5.90;69.00;5.30;97627.00;;;;5017296;28;20644;-73
2022/04/05 03:50:26;;;;;;;0.90;0.90;;;5.90;68.70;5.30;97624.00;;;;5017050;28;20201;-73
2022/04/05 03:52:53;;;;;;;1.30;1.07;;;6.00;66.90;5.40;97622.00;;;;5034427;28;20787;-72
2022/04/05 03:55:19;;;;;;;0.80;0.80;;;6.10;67.70;5.50;97627.00;;;;5034471;28;20627;-73
2022/04/05 03:57:46;;;;;;;1.30;1.30;;;6.10;67.40;5.20;97620.00;;;;5034360;28;20653;-72
2022/04/05 04:00:15;;;;;;;1.03;1.03;;;6.00;66.80;5.30;97626.00;;;;5034411;28;20252;-71
2022/04/05 04:02:44;;;;;;;0.93;0.93;;;6.00;66.50;5.20;97616.00;;;;5016857;28;20220;-72
2022/04/05 04:05:16;;;;;;;1.50;1.47;;;6.00;67.80;5.10;97617.00;;;;5034414;28;20288;-73
2022/04/05 04:07:43;;;;;;;0.97;0.97;;;5.90;68.60;5.10;97620.00;;;;5017229;28;20201;-73
2022/04/05 04:10:10;;;;;;;1.17;1.13;;;5.90;68.80;5.10;97623.00;;;;5034185;28;20208;-72
2022/04/05 04:12:36;;;;;;;1.23;1.13;;;5.80;68.10;5.10;97596.00;;;;5037519;28;20222;-73
2022/04/05 04:15:07;;;;;;;1.23;1.20;;;5.90;69.10;5.10;97609.00;;;;5035238;28;20199;-72
2022/04/05 04:17:35;;;;;;;1.07;1.07;;;5.90;69.60;5.00;97602.00;;;;5034343;28;20254;-72
2022/04/05 04:20:02;;;;;;;1.23;1.23;;;5.90;69.60;5.10;97610.00;;;;5034169;28;20233;-72
2022/04/05 04:22:30;;;;;;;1.07;1.07;;;5.90;70.00;5.10;97601.00;;;;5016563;28;20225;-73
2022/04/05 04:24:57;;;;;;;1.37;1.27;;;5.90;70.50;5.00;97599.00;;;;5034086;28;20211;-73
2022/04/05 04:27:24;;;;;;;0.73;0.73;;;5.80;71.30;5.10;97594.00;;;;5034117;28;20684;-73
2022/04/05 04:29:51;;;;;;;1.47;1.43;;;5.80;70.30;5.20;97600.00;;;;5034071;28;20233;-74
2022/04/05 04:32:18;;;;;;;1.43;1.33;;;5.90;70.20;5.00;97595.00;;;;5033886;28;20706;-73
2022/04/05 04:34:45;;;;;;;0.93;0.90;;;5.80;71.10;5.00;97588.00;;;;5033956;28;20200;-72
2022/04/05 04:37:13;;;;;;;0.70;0.70;;;5.80;71.30;4.90;97570.00;;;;5032911;28;20250;-72
2022/04/05 04:39:39;;;;;;;1.20;1.20;;;5.80;72.90;5.10;97598.00;;;;5033778;28;20220;-72
2022/04/05 04:42:07;;;;;;;4.33;1.77;;;5.80;72.90;5.00;97613.00;;;;5033672;28;20520;-72
2022/04/05 04:44:33;;;;;;;1.10;1.10;;;5.80;71.20;4.90;97610.00;;;;5016657;28;20217;-73
2022/04/05 04:47:00;;;;;;;0.87;0.87;;;5.70;72.40;5.00;97604.00;;;;5016266;28;20200;-71
2022/04/05 04:49:26;;;;;;;2.20;1.73;;;5.80;73.00;4.90;97607.00;;;;5033670;28;20343;-73
2022/04/05 04:51:54;;;;;;;0.70;0.70;;;5.70;75.30;4.90;97601.00;;;;5033613;28;20244;-73
2022/04/05 04:54:21;;;;;;;0.90;0.90;;;5.70;77.30;5.00;97612.00;;;;5033799;28;20247;-72
2022/04/05 04:56:48;;;;;;;0.93;0.93;;;5.70;77.20;4.90;97607.00;;;;5033613;28;20291;-73
2022/04/05 04:59:14;;;;;;;4.53;1.73;;;5.70;76.90;5.10;97610.00;;;;5033601;28;20294;-72
2022/04/05 05:01:41;;;;;;;0.90;0.90;;;5.80;76.60;4.90;97608.00;;;;5033645;28;20287;-72
2022/04/05 05:04:08;;;;;;;3.83;1.77;;;5.70;77.90;4.90;97619.00;;;;5033430;28;20229;-72
2022/04/05 05:06:35;;;;;;;1.03;1.03;;;5.80;78.20;5.00;97614.00;;;;5033411;28;20248;-72
2022/04/05 05:09:04;;;;;;;1.87;1.77;;;5.80;77.70;4.90;97625.00;;;;5033418;28;20636;-72
2022/04/05 05:11:31;;;;;;;0.80;0.80;;;5.80;79.30;4.80;97612.00;;;;5033361;28;20192;-72
2022/04/05 05:13:57;;;;;;;0.80;0.80;;;5.70;81.20;5.00;97614.00;;;;5033425;28;20231;-72
2022/04/05 05:16:26;;;;;;;1.13;1.13;;;5.70;83.50;4.90;97613.00;;;;5033642;28;20340;-72
2022/04/05 05:18:54;;;;;;;0.70;0.70;;;5.70;85.60;4.90;97620.00;;;;5017690;28;20243;-73
2022/04/05 05:21:23;;;;;;;0.90;0.90;;;5.70;88.30;4.80;97619.00;;;;5034120;28;20217;-72
2022/04/05 05:23:50;;;;;;;0.87;0.87;;;5.70;89.00;4.90;97618.00;;;;5037797;28;20675;-74
2022/04/05 05:26:17;;;;;;;1.00;1.00;;;5.60;91.00;5.00;97632.00;;;;5033642;28;20204;-73
2022/04/05 05:28:44;;;;;;;1.00;1.00;;;5.70;91.50;4.90;97630.00;;;;5033675;28;20204;-72
2022/04/05 05:31:10;;;;;;;0.90;0.90;;;5.70;91.10;4.90;97628.00;;;;5033269;28;20201;-72
2022/04/05 05:33:37;;;;;;;1.10;1.03;;;5.70;91.50;5.00;97624.00;;;;5015823;28;20197;-72
2022/04/05 05:36:04;;;;;;;2.20;2.00;;;5.80;92.20;4.90;97629.00;;;;5033081;28;20237;-72
2022/04/05 05:38:34;;;;;;;0.90;0.90;;;5.70;92.30;4.90;97630.00;;;;5015762;28;20252;-72
2022/04/05 05:41:04;;;;;;;1.43;1.33;;;5.70;92.40;4.90;97637.00;;;;5033065;28;20205;-72
2022/04/05 05:43:34;;;;;;;1.00;1.00;;;5.70;93.60;4.90;97637.00;;;;5015447;28;20236;-72
2022/04/05 05:46:03;;;;;;;1.20;1.20;;;5.70;94.70;4.90;97638.00;;;;5015580;28;20228;-72
2022/04/05 05:48:31;;;;;;;1.33;1.27;;;5.70;95.20;4.90;97638.00;;;;5033804;28;20279;-72
2022/04/05 05:50:58;;;;;;;0.80;0.80;;;5.70;95.60;5.00;97637.00;;;;5018982;28;20593;-72
2022/04/05 05:53:25;;;;;;;1.07;1.07;;;5.80;95.70;4.90;97641.00;;;;5036599;28;20204;-72
2022/04/05 05:55:51;;;;;;;1.40;1.33;;;5.70;96.30;5.00;97641.00;;;;5018973;28;20201;-71
2022/04/05 05:58:18;;;;;;;1.20;1.20;;;5.70;95.60;5.10;97641.00;;;;5036231;28;20275;-72
2022/04/05 06:00:45;;;;;;;0.83;0.83;;;5.80;95.50;5.00;97647.00;;;;5036338;28;20204;-72
2022/04/05 06:03:12;;;;;;;4.07;1.63;;;5.80;96.00;4.90;97645.00;;;;5036266;28;20302;-73
2022/04/05 06:05:39;;;;;;;0.87;0.87;;;5.80;96.30;5.10;97635.00;;;;5036203;28;20265;-73
2022/04/05 06:08:07;;;;;;;1.03;1.03;;;5.70;96.60;5.00;97648.00;;;;5036245;28;20258;-72
2022/04/05 06:10:36;;;;;;;0.87;0.87;;;5.80;95.80;5.10;97641.00;;;;5018816;28;20211;-72
2022/04/05 06:13:06;;;;;;;0.80;0.80;;;5.80;95.80;5.10;97635.00;;;;5035948;28;20227;-73
2022/04/05 06:15:32;;;;;;;1.03;1.03;;;5.80;95.40;5.10;97643.00;;;;5035988;28;20208;-74
2022/04/05 06:18:00;;;;;;;0.70;0.70;;;5.90;95.60;5.00;97647.00;;;;5035871;28;20276;-73
2022/04/05 06:20:27;;;;;;;1.03;1.03;;;5.80;95.70;5.00;97652.00;;;;5036018;28;20204;-73
2022/04/05 06:22:56;;;;;;;3.20;1.83;;;5.80;96.30;5.10;97639.00;;;;5035863;28;20286;-73
2022/04/05 06:25:27;;;;;;;0.87;0.87;;;5.80;96.70;4.90;97652.00;;;;5018804;28;20281;-72
2022/04/05 06:27:53;;;;;;;1.10;1.10;;;5.80;96.30;4.90;97645.00;;;;5035817;28;20189;-73
2022/04/05 06:30:20;;;;;;;1.30;1.20;;;5.70;96.30;4.80;97646.00;;;;5035688;28;20258;-73
2022/04/05 06:32:47;;;;;;;1.33;1.23;;;5.70;96.70;5.00;97658.00;;;;5035607;28;20231;-75
2022/04/05 06:35:15;;;;;;;0.67;0.67;;;5.70;97.50;5.00;97652.00;;;;5035659;28;20254;-76
2022/04/05 06:37:45;;;;;;;1.33;1.33;;;5.80;96.30;5.00;97659.00;;;;5035625;28;20666;-76
2022/04/05 06:40:16;;;;;;;0.80;0.80;;;5.80;96.90;5.10;97655.00;;;;5035840;28;20259;-76
2022/04/05 06:42:43;;;;;;;1.33;1.33;;;5.80;97.50;5.20;97622.00;;;;5035776;28;20306;-74
2022/04/05 06:45:15;;;;;;;1.00;1.00;;;5.90;97.30;5.10;97626.00;;;;5035624;28;20243;-72
2022/04/05 06:47:42;;;;;;;0.80;0.80;;;6.00;96.70;5.20;97649.00;;;;5035521;28;20245;-73
2022/04/05 06:50:14;;;;;;;1.73;1.67;;;5.90;97.20;5.10;97644.00;;;;5017924;28;20695;-73
2022/04/05 06:52:42;;;;;;;0.80;0.80;;;5.80;97.40;5.30;97658.00;;;;5018343;28;20214;-73
2022/04/05 06:55:11;;;;;;;0.93;0.93;;;6.00;96.80;5.30;97644.00;;;;5035335;28;20204;-73
2022/04/05 06:57:38;;;;;;;1.20;1.13;;;6.10;95.20;5.40;97642.00;;;;5035212;28;20220;-73
2022/04/05 07:00:07;;;;;;;0.80;0.80;;;6.10;95.30;5.40;97644.00;;;;5034324;28;20294;-74
2022/04/05 07:02:36;;;;;;;1.97;1.73;;;6.10;95.80;5.30;97645.00;;;;5035199;28;20223;-74
2022/04/05 07:05:04;;;;;;;1.27;1.23;;;6.10;95.10;5.50;97640.00;;;;5035376;28;20239;-73
2022/04/05 07:07:31;;;;;;;3.50;1.23;;;6.20;95.20;5.30;97649.00;;;;5035222;28;20188;-73
2022/04/05 07:09:58;;;;;;;0.97;0.97;;;6.10;95.90;5.50;97644.00;;;;5035065;28;20307;-72
2022/04/05 07:12:27;;;;;;;0.70;0.70;;;6.20;94.50;5.40;97641.00;;;;5017570;28;20226;-73
2022/04/05 07:14:53;;;;;;;0.80;0.80;;;6.20;93.90;5.50;97638.00;;;;5035148;28;20200;-73
2022/04/05 07:17:20;;;;;;;0.73;0.73;;;6.20;94.30;5.70;97639.00;;;;5034953;28;20312;-73
2022/04/05 07:19:49;;;;;;;0.80;0.80;;;6.30;94.10;5.60;97635.00;;;;5035064;28;20339;-73
2022/04/05 07:22:15;;;;;;;1.00;1.00;;;6.30;94.40;5.60;97635.00;;;;5034797;28;20224;-73
2022/04/05 07:24:42;;;;;;;0.60;0.60;;;6.30;92.70;5.60;97641.00;;;;5035060;28;20743;-72
2022/04/05 07:27:09;;;;;;;1.03;1.03;;;6.40;93.50;5.60;97642.00;;;;5017641;28;20250;-73
2022/04/05 07:29:36;;;;;;;1.00;1.00;;;6.30;94.70;5.70;97645.00;;;;5035002;28;20244;-73
2022/04/05 07:32:03;;;;;;;1.17;1.17;;;6.40;95.20;5.80;97645.00;;;;5034980;28;20216;-72
2022/04/05 07:34:29;;;;;;;1.37;1.27;;;6.50;94.40;5.80;97657.00;;;;5034447;28;20242;-73
2022/04/05 07:36:56;;;;;;;0.93;0.93;;;6.50;94.20;5.90;97656.00;;;;5034775;28;20205;-72
2022/04/05 07:39:23;;;;;;;0.77;0.77;;;6.60;94.80;5.80;97659.00;;;;5034837;28;20510;-72
2022/04/05 07:41:53;;;;;;;0.87;0.87;;;6.50;95.00;5.90;97653.00;;;;5034663;28;20693;-74
2022/04/05 07:44:20;;;;;;;0.67;0.67;;;6.60;94.50;6.00;97643.00;;;;5034745;28;20363;-72
2022/04/05 07:46:49;;;;;;;1.20;1.20;;;6.60;94.50;5.80;97647.00;;;;5034756;28;20228;-71
2022/04/05 07:49:15;;;;;;;0.70;0.70;;;6.60;95.10;5.70;97637.00;;;;5034722;28;20267;-73
2022/04/05 07:51:44;;;;;;;1.10;1.07;;;6.50;96.10;5.80;97644.00;;;;5017107;28;20220;-72
2022/04/05 07:54:11;;;;;;;0.80;0.80;;;6.50;96.30;5.90;97632.00;;;;5017074;28;20284;-72
2022/04/05 07:56:37;;;;;;;0.70;0.70;;;6.60;97.00;5.90;97635.00;;;;5034519;28;20283;-74
2022/04/05 07:59:04;;;;;;;0.80;0.80;;;6.60;97.20;6.00;97635.00;;;;5034489;28;20309;-73
2022/04/05 08:01:31;;;;;;;0.60;0.60;;;6.70;97.60;6.20;97637.00;;;;5034443;28;20313;-73
2022/04/05 08:03:58;;;;;;;0.90;0.90;;;6.80;97.30;6.30;97642.00;;;;5034228;28;20222;-74
2022/04/05 08:06:27;;;;;;;0.70;0.70;;;6.90;97.00;6.20;97634.00;;;;5034345;28;20194;-73
2022/04/05 08:08:53;;;;;;;0.93;0.93;;;6.90;96.40;6.30;97639.00;;;;5034262;28;20219;-73
2022/04/05 08:11:20;;;;;;;1.10;1.10;;;6.90;96.60;6.40;97644.00;;;;5034217;28;20198;-75
2022/04/05 08:13:47;;;;;;;1.93;1.83;;;7.00;95.80;6.40;97650.00;;;;5034195;28;20226;-75
2022/04/05 08:16:13;;;;;;;0.87;0.87;;;7.10;95.20;6.50;97661.00;;;;5017251;28;20212;-74
2022/04/05 08:18:41;;;;;;;1.07;1.07;;;7.10;95.60;6.40;97657.00;;;;5035484;28;20237;-74
2022/04/05 08:21:08;;;;;;;1.17;1.17;;;;;6.40;97656.00;;;;5037692;28;20271;-74
2022/04/05 08:23:38;;;;;;;1.10;1.10;;;7.10;95.60;6.40;97660.00;;;;5034058;28;20222;-74
2022/04/05 08:26:07;;;;;;;1.33;1.23;;;7.10;96.50;6.30;97664.00;;;;5033952;28;20262;-74
2022/04/05 08:28:34;;;;;;;0.80;0.80;;;7.10;97.80;6.30;97669.00;;;;5034022;28;20218;-73
2022/04/05 08:31:01;;;;;;;1.10;1.10;;;7.10;98.20;6.40;97663.00;;;;5034014;28;20214;-74
2022/04/05 08:33:28;;;;;;;0.70;0.70;;;7.10;98.20;6.40;97661.00;;;;5033882;28;20227;-74
2022/04/05 08:35:57;;;;;;;0.83;0.83;;;7.10;98.40;6.40;97658.00;;;;5033968;28;20630;-75
2022/04/05 08:38:24;;;;;;;0.90;0.90;;;7.10;98.70;6.50;97668.00;;;;5033991;28;20234;-74
2022/04/05 08:40:51;;;;;;;0.87;0.87;;;7.20;99.40;6.60;97657.00;;;;5033927;28;20232;-73
2022/04/05 08:43:18;;;;;;;1.07;1.07;;;7.30;98.60;6.50;97666.00;;;;5033707;28;20655;-73
2022/04/05 08:45:53;;;;;;;0.67;0.67;;;7.20;98.40;6.60;97668.00;;;;5033907;28;20241;-73
2022/04/05 08:48:26;;;;;;;0.60;0.60;;;7.30;98.50;6.70;97668.00;;;;5034060;28;20290;-73
2022/04/05 08:50:57;;;;;;;0.93;0.93;;;7.30;98.50;6.70;97659.00;;;;5033911;28;20236;-74
2022/04/05 08:53:24;;;;;;;1.00;1.00;;;7.40;98.60;6.70;97668.00;;;;5033645;28;20758;-74
2022/04/05 08:55:53;;;;;;;1.10;1.10;;;7.40;98.30;6.80;97674.00;;;;5033764;28;20202;-74
2022/04/05 08:58:20;;;;;;;2.70;1.43;;;7.50;98.50;6.90;97659.00;;;;5016442;28;20209;-75
2022/04/05 09:00:47;;;;;;;1.03;1.03;;;7.60;98.20;6.90;97667.00;;;;5033708;28;20218;-74
2022/04/05 09:03:14;;;;;;;1.43;1.33;;;7.60;97.60;7.10;97674.00;;;;5033718;28;20792;-75
2022/04/05 09:05:43;;;;;;;1.17;1.17;;;7.70;97.40;7.20;97674.00;;;;5033528;28;20221;-74
2022/04/05 09:08:18;;;;;;;1.10;1.03;;;7.90;97.50;7.30;97674.00;;;;5033722;28;20233;-74
2022/04/05 09:10:48;;;;;;;1.00;1.00;;;8.00;97.50;7.40;97674.00;;;;5033737;28;20684;-73
2022/04/05 09:13:19;;;;;;;1.23;1.23;;;8.10;96.50;7.20;97675.00;;;;5033474;28;20199;-73
2022/04/05 09:15:51;;;;;;;0.73;0.73;;;7.90;95.00;7.40;97674.00;;;;5033518;28;20281;-73
2022/04/05 09:18:35;;;;;;;1.20;1.20;;;8.00;95.50;7.50;97679.00;;;;5033421;28;20230;-74
2022/04/05 09:21:03;;;;;;;0.90;0.90;;;8.20;95.80;7.50;97682.00;;;;5016094;28;20234;-74
2022/04/05 09:23:33;;;;;;;2.63;1.40;;;8.20;96.00;7.50;97669.00;;;;5033942;28;20223;-73
2022/04/05 09:26:02;;;;;;;0.90;0.90;;;8.20;95.70;7.50;97673.00;;;;5019458;28;20236;-73
2022/04/05 09:28:33;;;;;;;1.10;1.10;;;8.30;96.60;7.60;97684.00;;;;5036867;28;20287;-73
2022/04/05 09:31:03;;;;;;;0.70;0.70;;;8.30;96.10;7.60;97674.00;;;;5036730;28;20204;-73
2022/04/05 09:33:32;;;;;;;0.93;0.93;;;8.30;96.60;7.60;97674.00;;;;5036731;28;20192;-73
2022/04/05 09:36:10;;;;;;;0.90;0.90;;;8.30;95.80;7.60;97682.00;;;;5036904;28;20283;-74
2022/04/05 09:38:40;;;;;;;1.10;1.10;;;8.30;95.60;7.70;97678.00;;;;5036785;28;20231;-73
2022/04/05 09:41:13;;;;;;;0.90;0.90;;;8.30;96.60;7.70;97680.00;;;;5036658;28;20640;-74
2022/04/05 09:43:56;;;;;;;1.03;1.03;;;8.40;96.60;7.70;97681.00;;;;5036634;28;20223;-74
2022/04/05 09:46:28;;;;;;;0.73;0.73;;;8.30;97.00;7.70;97682.00;;;;5036663;28;20197;-73
2022/04/05 09:49:10;;;;;;;1.47;1.37;;;8.40;97.10;7.80;97680.00;;;;5036659;28;20511;-73
2022/04/05 09:51:44;;;;;;;1.43;1.33;;;8.40;97.50;7.80;97684.00;;;;5036827;28;20232;-73
2022/04/05 09:54:27;;;;;;;2.33;1.30;;;8.50;97.80;7.80;97689.00;;;;5019427;28;20510;-73
2022/04/05 09:57:03;;;;;;;2.13;2.03;;;8.50;98.00;7.80;97695.00;;;;5036812;28;20244;-73
2022/04/05 09:59:39;;;;;;;0.90;0.90;;;8.50;98.30;7.80;97683.00;;;;5037186;28;20622;-72
2022/04/05 10:02:14;;;;;;;1.07;1.07;;;8.60;98.20;7.90;97691.00;;;;5037347;28;20196;-73
2022/04/05 10:05:04;;;;;;;0.70;0.70;;;8.60;98.10;7.90;97694.00;;;;5040086;28;20216;-72
2022/04/05 10:07:32;;;;;;;0.97;0.97;;;8.60;97.80;7.80;97687.00;;;;5036658;28;20261;-74
2022/04/05 10:10:04;;;;;;;0.80;0.80;;;8.50;98.50;7.80;97690.00;;;;5036325;28;20307;-73
2022/04/05 10:12:31;;;;;;;2.50;1.77;;;8.50;98.70;7.90;97688.00;;;;5036364;28;20227;-73
2022/04/05 10:15:00;;;;;;;1.27;1.23;;;8.60;98.80;7.80;97690.00;;;;5036020;28;20201;-73
2022/04/05 10:17:29;;;;;;;0.80;0.80;;;8.60;97.80;7.80;97689.00;;;;5018806;28;20264;-73
2022/04/05 10:19:57;;;;;;;0.60;0.60;;;8.60;97.50;8.00;97693.00;;;;5036076;28;20205;-73
2022/04/05 10:22:25;;;;;;;3.00;1.07;;;8.60;97.80;8.00;97687.00;;;;5035842;28;20558;-74
2022/04/05 10:24:55;;;;;;;1.00;0.90;;;8.70;97.90;8.10;97679.00;;;;5036025;28;20635;-72
2022/04/05 10:27:25;;;;;;;0.90;0.90;;;8.70;97.90;8.10;97684.00;;;;5018489;28;20204;-73
2022/04/05 10:30:02;;;;;;;0.90;0.90;;;8.80;97.90;8.20;97681.00;;;;5035827;28;20240;-72
2022/04/05 10:32:43;;;;;;;0.90;0.90;;;8.90;98.20;8.20;97679.00;;;;5035800;28;20207;-72
2022/04/05 10:35:11;;;;;;;11.40;2.10;;;8.90;98.30;8.30;97682.00;;;;5016928;28;20666;-71
2022/04/05 10:37:39;;;;;;;1.23;1.23;;;8.90;98.30;8.20;97677.00;;;;5018273;28;20543;-73
2022/04/05 10:40:19;;;;;;;0.60;0.60;;;9.00;98.20;8.30;97674.00;;;;5035738;28;20548;-73
2022/04/05 10:42:49;;;;;;;0.77;0.77;;;9.00;98.00;8.40;97677.00;;;;5035728;28;20319;-72
2022/04/05 10:45:19;;;;;;;1.13;1.07;;;9.10;97.00;8.40;97678.00;;;;5035930;28;20839;-72
2022/04/05 10:48:13;;;;;;;0.90;0.90;;;9.00;96.00;8.40;97678.00;;;;5018134;28;20680;-73
2022/04/05 10:50:44;;;;;;;1.00;1.00;;;9.10;95.90;8.40;97671.00;;;;5035533;28;20242;-73
2022/04/05 10:53:15;;;;;;;1.50;1.10;;;9.10;94.80;8.50;97674.00;;;;5035447;28;20209;-74
2022/04/05 10:56:16;;;;;;;0.77;0.77;;;9.10;95.80;8.50;97667.00;;;;5036878;28;20221;-72
2022/04/05 10:59:18;;;;;;;0.70;0.70;;;9.10;96.00;8.50;97670.00;;;;5036039;28;20639;-72
2022/04/05 11:01:45;;;;;;;1.03;1.03;;;9.20;95.80;8.60;97677.00;;;;5035382;28;20698;-71
2022/04/05 11:04:33;;;;;;;0.80;0.80;;;9.20;95.20;8.60;97671.00;;;;5035392;28;20220;-71
2022/04/05 11:07:11;;;;;;;0.93;0.93;;;9.20;95.60;8.70;97667.00;;;;5035214;28;20278;-71
2022/04/05 11:09:53;;;;;;;0.87;0.87;;;9.30;94.60;8.60;97662.00;;;;5035391;28;20204;-70
2022/04/05 11:12:27;;;;;;;0.60;0.60;;;9.30;94.40;8.50;97668.00;;;;5035237;28;20257;-71
2022/04/05 11:14:58;;;;;;;0.90;0.90;;;9.20;93.90;8.60;97676.00;;;;5035156;28;20196;-71
2022/04/05 11:17:28;;;;;;;0.63;0.63;;;9.30;94.40;8.60;97674.00;;;;5035383;28;20224;-71